Fort Myers, FL

3:41 PM EDT on September 29, 2016 (GMT -0400)
Slater Road | | Change Station

Elev 36 ft 26.73 °N, 81.85 °W | Updated 18 seconds ago

Clear
Clear
88.9 °F
Feels Like 90 °F
N
2.0
Wind Variable Wind from West
Gusts 2.5 mph

Today
High -- | Low -- °F
--% Chance of Precip.
Yesterday
High -- | Low -- °F
Precip. -- in
Pressure 30.05 in
Visibility 10.0 miles
Clouds Clear
Heat Index 90 °F
Dew Point 64 °F
Humidity 44%
Rainfall 0.09 in
Snow Depth Not available.
7:19 AM 7:15 PM
Waning Crescent, 1% visible
METAR KFMY 291853Z 26006KT 10SM CLR 30/23 A3004 RMK AO2 LTG DSNT NE-SE RAE21 TSB02E31 SLP174 P0000 T03000233
Pressure 30.05 in
Visibility 10.0 miles
Clouds Clear
Heat Index 90 °F
Dew Point 64 °F
Humidity 44%
Rainfall 0.09 in
Snow Depth Not available.
7:19 AM 7:15 PM
Waning Crescent, 1% visible
METAR KFMY 291853Z 26006KT 10SM CLR 30/23 A3004 RMK AO2 LTG DSNT NE-SE RAE21 TSB02E31 SLP174 P0000 T03000233

10-Day Weather Forecast

Almanac

Astronomy

Sep. 29, 2016 Rise Set
Actual Time
Civil Twilight
Nautical Twilight
Astronomical Twilight
Moon
Length of Visible Light
Length of Day
Tomorrow will be .
, % of the Moon is Illuminated

Today's Extremes

State Highs State Lows

Community

WunderPhotos

Upload Photos

1,942,551 photos uploaded!

WunderBlog® & News

Nearby

Air Quality

  Air Quality AQ Index Pollutant
Not available.

Snow Depth

Station Depth Elevation

Earthquake Activity

City Distance Mag. Time & Date
Minimum magnitude displayed is 2.5.

Coastal Water Temperatures

Place Temperature

Stations

Nearby Weather Stations

Station Location Temp. Windchill Dew Point Humidity Wind Precip. Elev Updated Type
                   

Watches & Warnings

There are currently no watches in effect.